KTDZ/TDZ METAR and TAF weather

Enter ICAO airport designator
Station Type Date Time Source
KTDZ METAR 2019/04/25 11:53 UTC NOAA

KTDZ 251153Z AUTO 11005KT 10SM OVC033 10/08 A2988 RMK AO2 SLP117 60000 T01000078 10100 20089 53003


Station Type Date Time Source
KTDZ Decoded METAR 2019/04/25 11:53 UTC NOAA

TOLEDO METCALF FIELD, OH, United States (KTDZ) 41-34N 83-29W 189M
Apr 25, 2019 - 07:53 AM EDT / 2019.04.25 1153 UTC
Wind: from the ESE (110 degrees) at 6 MPH (5 KT):0
Visibility: 10 mile(s):0
Sky conditions: overcast
Temperature: 50.0 F (10.0 C)
Dew Point: 46.0 F (7.8 C)
Relative Humidity: 86%
Pressure (altimeter): 29.88 in. Hg (1011 hPa)
Pressure tendency: 0.01 inches (0.3 hPa) higher than three hours ago
ob: KTDZ 251153Z AUTO 11005KT 10SM OVC033 10/08 A2988 RMK AO2 SLP117 60000 T01000078 10100 20089 53003
cycle: 12

Station Type Date Time Source
KTDZ TAF UTC NOAA

Error!

Example: see airport list